sensor_id;sensor_type;location;lat;lon;timestamp;pressure;altitude;pressure_sealevel;temperature;humidity
67738;BME280;54534;43.612;1.572;2023-02-11T00:01:32;100978.59;;;17.61;39.32
67738;BME280;54534;43.612;1.572;2023-02-11T00:03:58;100974.31;;;17.58;39.37
67738;BME280;54534;43.612;1.572;2023-02-11T00:06:26;100976.09;;;17.58;39.48
67738;BME280;54534;43.612;1.572;2023-02-11T00:08:52;100970.84;;;17.56;39.14
67738;BME280;54534;43.612;1.572;2023-02-11T00:11:19;100973.56;;;17.54;39.13
67738;BME280;54534;43.612;1.572;2023-02-11T00:13:45;100968.34;;;17.53;39.15
67738;BME280;54534;43.612;1.572;2023-02-11T00:16:13;100965.75;;;17.51;39.02
67738;BME280;54534;43.612;1.572;2023-02-11T00:18:38;100962.28;;;17.49;39.58
67738;BME280;54534;43.612;1.572;2023-02-11T00:21:09;100961.38;;;17.50;39.08
67738;BME280;54534;43.612;1.572;2023-02-11T00:23:35;100960.50;;;17.50;39.18
67738;BME280;54534;43.612;1.572;2023-02-11T00:26:01;100957.97;;;17.47;39.08
67738;BME280;54534;43.612;1.572;2023-02-11T00:28:26;100961.59;;;17.45;39.19
67738;BME280;54534;43.612;1.572;2023-02-11T00:30:56;100960.72;;;17.45;39.30
67738;BME280;54534;43.612;1.572;2023-02-11T00:33:21;100956.41;;;17.42;39.07
67738;BME280;54534;43.612;1.572;2023-02-11T00:35:47;100950.22;;;17.42;39.30
67738;BME280;54534;43.612;1.572;2023-02-11T00:38:12;100947.56;;;17.42;38.93
67738;BME280;54534;43.612;1.572;2023-02-11T00:40:38;100942.34;;;17.40;39.08
67738;BME280;54534;43.612;1.572;2023-02-11T00:43:03;100938.81;;;17.40;39.34
67738;BME280;54534;43.612;1.572;2023-02-11T00:45:28;100940.59;;;17.39;39.21
67738;BME280;54534;43.612;1.572;2023-02-11T00:47:55;100943.25;;;17.39;39.36
67738;BME280;54534;43.612;1.572;2023-02-11T00:50:20;100936.16;;;17.40;39.03
67738;BME280;54534;43.612;1.572;2023-02-11T00:52:46;100933.50;;;17.40;38.83
67738;BME280;54534;43.612;1.572;2023-02-11T00:55:11;100931.69;;;17.40;39.27
67738;BME280;54534;43.612;1.572;2023-02-11T00:57:37;100936.06;;;17.41;38.98
67738;BME280;54534;43.612;1.572;2023-02-11T01:00:04;100935.16;;;17.42;38.83
67738;BME280;54534;43.612;1.572;2023-02-11T01:02:30;100940.47;;;17.42;38.81
67738;BME280;54534;43.612;1.572;2023-02-11T01:04:56;100938.59;;;17.44;38.98
67738;BME280;54534;43.612;1.572;2023-02-11T01:07:24;100932.47;;;17.42;39.09
67738;BME280;54534;43.612;1.572;2023-02-11T01:09:49;100921.75;;;17.44;39.00
67738;BME280;54534;43.612;1.572;2023-02-11T01:12:14;100932.34;;;17.45;38.83
67738;BME280;54534;43.612;1.572;2023-02-11T01:14:40;100931.47;;;17.45;39.03
67738;BME280;54534;43.612;1.572;2023-02-11T01:17:05;100933.22;;;17.46;38.96
67738;BME280;54534;43.612;1.572;2023-02-11T01:19:31;100924.28;;;17.47;39.18
67738;BME280;54534;43.612;1.572;2023-02-11T01:21:56;100920.69;;;17.48;38.98
67738;BME280;54534;43.612;1.572;2023-02-11T01:24:21;100918.09;;;17.47;38.99
67738;BME280;54534;43.612;1.572;2023-02-11T01:26:47;100921.63;;;17.47;39.36
67738;BME280;54534;43.612;1.572;2023-02-11T01:29:12;100918.03;;;17.48;38.88
67738;BME280;54534;43.612;1.572;2023-02-11T01:31:38;100917.16;;;17.48;39.08
67738;BME280;54534;43.612;1.572;2023-02-11T01:34:03;100922.50;;;17.48;39.16
67738;BME280;54534;43.612;1.572;2023-02-11T01:36:28;100911.84;;;17.48;38.92
67738;BME280;54534;43.612;1.572;2023-02-11T01:38:54;100912.72;;;17.48;38.86
67738;BME280;54534;43.612;1.572;2023-02-11T01:41:20;100912.78;;;17.47;39.05
67738;BME280;54534;43.612;1.572;2023-02-11T01:43:48;100914.50;;;17.48;39.21
67738;BME280;54534;43.612;1.572;2023-02-11T01:48:53;100899.41;;;17.48;39.38
67738;BME280;54534;43.612;1.572;2023-02-11T01:51:37;100901.22;;;17.48;38.93
67738;BME280;54534;43.612;1.572;2023-02-11T01:54:05;100909.19;;;17.48;39.28
67738;BME280;54534;43.612;1.572;2023-02-11T01:56:51;100899.47;;;17.47;39.17
67738;BME280;54534;43.612;1.572;2023-02-11T01:59:42;100893.31;;;17.46;39.15
67738;BME280;54534;43.612;1.572;2023-02-11T02:02:11;100900.44;;;17.45;38.96
67738;BME280;54534;43.612;1.572;2023-02-11T02:04:45;100894.16;;;17.47;38.97
67738;BME280;54534;43.612;1.572;2023-02-11T02:07:27;100896.81;;;17.47;39.19
67738;BME280;54534;43.612;1.572;2023-02-11T02:10:01;100891.50;;;17.47;39.23
67738;BME280;54534;43.612;1.572;2023-02-11T02:12:28;100888.94;;;17.45;38.98
67738;BME280;54534;43.612;1.572;2023-02-11T02:15:20;100895.13;;;17.45;38.98
67738;BME280;54534;43.612;1.572;2023-02-11T02:37:58;100868.66;;;17.42;39.06
67738;BME280;54534;43.612;1.572;2023-02-11T02:40:32;100866.00;;;17.42;38.77
67738;BME280;54534;43.612;1.572;2023-02-11T02:43:00;100861.63;;;17.41;39.03
67738;BME280;54534;43.612;1.572;2023-02-11T02:45:26;100866.00;;;17.42;38.82
67738;BME280;54534;43.612;1.572;2023-02-11T02:47:51;100858.97;;;17.41;38.98
67738;BME280;54534;43.612;1.572;2023-02-11T02:50:21;100856.25;;;17.43;38.88
67738;BME280;54534;43.612;1.572;2023-02-11T03:01:40;100848.25;;;17.43;38.58
67738;BME280;54534;43.612;1.572;2023-02-11T03:04:07;100846.47;;;17.43;38.63
67738;BME280;54534;43.612;1.572;2023-02-11T03:06:42;100845.59;;;17.43;38.81
67738;BME280;54534;43.612;1.572;2023-02-11T03:09:31;100840.28;;;17.43;38.60
67738;BME280;54534;43.612;1.572;2023-02-11T03:12:01;100847.31;;;17.44;38.64
67738;BME280;54534;43.612;1.572;2023-02-11T03:14:28;100848.25;;;17.43;38.40
67738;BME280;54534;43.612;1.572;2023-02-11T03:16:56;100845.50;;;17.44;38.65
67738;BME280;54534;43.612;1.572;2023-02-11T03:19:29;100846.47;;;17.43;38.44
67738;BME280;54534;43.612;1.572;2023-02-11T03:21:57;100848.25;;;17.43;38.60
67738;BME280;54534;43.612;1.572;2023-02-11T03:24:27;100841.16;;;17.43;38.52
67738;BME280;54534;43.612;1.572;2023-02-11T03:26:57;100835.84;;;17.43;38.44
67738;BME280;54534;43.612;1.572;2023-02-11T03:29:35;100844.66;;;17.44;38.46
67738;BME280;54534;43.612;1.572;2023-02-11T03:32:22;100842.84;;;17.44;38.30
67738;BME280;54534;43.612;1.572;2023-02-11T03:35:16;100832.22;;;17.44;38.56
67738;BME280;54534;43.612;1.572;2023-02-11T03:37:56;100834.88;;;17.44;38.56
67738;BME280;54534;43.612;1.572;2023-02-11T03:40:27;100832.31;;;17.43;38.31
67738;BME280;54534;43.612;1.572;2023-02-11T03:43:09;100830.50;;;17.43;38.19
67738;BME280;54534;43.612;1.572;2023-02-11T03:45:37;100830.50;;;17.43;38.52
67738;BME280;54534;43.612;1.572;2023-02-11T03:48:07;100834.88;;;17.44;38.20
67738;BME280;54534;43.612;1.572;2023-02-11T03:50:36;100833.09;;;17.45;38.45
67738;BME280;54534;43.612;1.572;2023-02-11T03:53:04;100829.66;;;17.43;38.21
67738;BME280;54534;43.612;1.572;2023-02-11T03:55:32;100824.34;;;17.43;38.06
67738;BME280;54534;43.612;1.572;2023-02-11T03:57:59;100826.03;;;17.44;37.99
67738;BME280;54534;43.612;1.572;2023-02-11T04:00:36;100826.91;;;17.44;38.19
67738;BME280;54534;43.612;1.572;2023-02-11T04:03:04;100827.00;;;17.43;37.98
67738;BME280;54534;43.612;1.572;2023-02-11T04:05:29;100831.44;;;17.42;38.00
67738;BME280;54534;43.612;1.572;2023-02-11T04:07:55;100834.97;;;17.43;38.08
67738;BME280;54534;43.612;1.572;2023-02-11T04:10:20;100834.09;;;17.42;37.96
67738;BME280;54534;43.612;1.572;2023-02-11T04:12:46;100827.91;;;17.42;37.92
67738;BME280;54534;43.612;1.572;2023-02-11T04:15:11;100830.56;;;17.42;38.06
67738;BME280;54534;43.612;1.572;2023-02-11T04:17:37;100827.06;;;17.41;37.92
67738;BME280;54534;43.612;1.572;2023-02-11T04:20:02;100825.34;;;17.40;38.19
67738;BME280;54534;43.612;1.572;2023-02-11T04:22:29;100821.72;;;17.41;37.93
67738;BME280;54534;43.612;1.572;2023-02-11T04:24:54;100829.72;;;17.41;38.22
67738;BME280;54534;43.612;1.572;2023-02-11T04:27:20;100831.44;;;17.42;37.96
67738;BME280;54534;43.612;1.572;2023-02-11T04:29:45;100829.72;;;17.41;38.01
67738;BME280;54534;43.612;1.572;2023-02-11T04:32:10;100826.13;;;17.42;38.00
67738;BME280;54534;43.612;1.572;2023-02-11T04:34:36;100830.56;;;17.42;37.85
67738;BME280;54534;43.612;1.572;2023-02-11T04:37:02;100822.59;;;17.42;38.11
67738;BME280;54534;43.612;1.572;2023-02-11T04:39:27;100831.44;;;17.42;37.98
67738;BME280;54534;43.612;1.572;2023-02-11T04:41:53;100826.13;;;17.42;37.77
67738;BME280;54534;43.612;1.572;2023-02-11T04:44:18;100828.78;;;17.42;37.96
67738;BME280;54534;43.612;1.572;2023-02-11T04:46:44;100828.78;;;17.42;37.94
67738;BME280;54534;43.612;1.572;2023-02-11T04:49:14;100823.47;;;17.42;37.59
67738;BME280;54534;43.612;1.572;2023-02-11T04:51:39;100818.16;;;17.42;37.50
67738;BME280;54534;43.612;1.572;2023-02-11T04:54:05;100823.47;;;17.42;38.06
67738;BME280;54534;43.612;1.572;2023-02-11T04:56:30;100817.28;;;17.42;37.56
67738;BME280;54534;43.612;1.572;2023-02-11T04:58:56;100817.28;;;17.42;38.13
67738;BME280;54534;43.612;1.572;2023-02-11T05:01:21;100804.06;;;17.40;37.80
67738;BME280;54534;43.612;1.572;2023-02-11T05:03:47;100810.16;;;17.42;37.65
67738;BME280;54534;43.612;1.572;2023-02-11T05:06:12;100811.09;;;17.41;37.70
67738;BME280;54534;43.612;1.572;2023-02-11T05:08:38;100809.31;;;17.42;37.80
67738;BME280;54534;43.612;1.572;2023-02-11T05:11:04;100816.41;;;17.41;37.72
67738;BME280;54534;43.612;1.572;2023-02-11T05:13:30;100808.44;;;17.41;37.73
67738;BME280;54534;43.612;1.572;2023-02-11T05:15:55;100813.75;;;17.41;37.73
67738;BME280;54534;43.612;1.572;2023-02-11T05:18:21;100803.13;;;17.41;37.45
67738;BME280;54534;43.612;1.572;2023-02-11T05:20:47;100814.63;;;17.42;37.66
67738;BME280;54534;43.612;1.572;2023-02-11T05:23:12;100813.75;;;17.41;37.45
67738;BME280;54534;43.612;1.572;2023-02-11T05:25:38;100819.94;;;17.42;37.79
67738;BME280;54534;43.612;1.572;2023-02-11T05:28:04;100817.28;;;17.42;37.29
67738;BME280;54534;43.612;1.572;2023-02-11T05:30:30;100817.28;;;17.42;37.51
67738;BME280;54534;43.612;1.572;2023-02-11T05:32:56;100818.16;;;17.42;37.48
67738;BME280;54534;43.612;1.572;2023-02-11T05:35:22;100818.16;;;17.42;37.46
67738;BME280;54534;43.612;1.572;2023-02-11T05:37:47;100816.41;;;17.41;37.48
67738;BME280;54534;43.612;1.572;2023-02-11T05:40:13;100815.56;;;17.41;37.64
67738;BME280;54534;43.612;1.572;2023-02-11T05:42:38;100813.75;;;17.41;37.55
67738;BME280;54534;43.612;1.572;2023-02-11T05:45:04;100812.06;;;17.40;37.30
67738;BME280;54534;43.612;1.572;2023-02-11T05:47:29;100814.72;;;17.40;37.29
67738;BME280;54534;43.612;1.572;2023-02-11T05:49:55;100809.38;;;17.40;37.37
67738;BME280;54534;43.612;1.572;2023-02-11T05:52:21;100804.06;;;17.40;37.49
67738;BME280;54534;43.612;1.572;2023-02-11T05:54:46;100804.06;;;17.40;37.55
67738;BME280;54534;43.612;1.572;2023-02-11T05:57:12;100804.06;;;17.40;37.55
67738;BME280;54534;43.612;1.572;2023-02-11T05:59:38;100799.69;;;17.39;37.20
67738;BME280;54534;43.612;1.572;2023-02-11T06:02:03;100799.69;;;17.39;37.26
67738;BME280;54534;43.612;1.572;2023-02-11T06:04:29;100800.56;;;17.40;37.45
67738;BME280;54534;43.612;1.572;2023-02-11T06:06:55;100804.13;;;17.39;37.36
67738;BME280;54534;43.612;1.572;2023-02-11T06:09:20;100807.66;;;17.39;37.19
67738;BME280;54534;43.612;1.572;2023-02-11T06:11:46;100807.66;;;17.39;37.42
67738;BME280;54534;43.612;1.572;2023-02-11T06:14:11;100800.63;;;17.38;37.22
67738;BME280;54534;43.612;1.572;2023-02-11T06:16:37;100808.63;;;17.38;37.14
67738;BME280;54534;43.612;1.572;2023-02-11T06:19:02;100809.38;;;17.40;37.31
67738;BME280;54534;43.612;1.572;2023-02-11T06:21:28;100801.41;;;17.40;37.13
67738;BME280;54534;43.612;1.572;2023-02-11T06:23:53;100802.34;;;17.39;37.04
67738;BME280;54534;43.612;1.572;2023-02-11T06:26:21;100803.22;;;17.40;37.25
67738;BME280;54534;43.612;1.572;2023-02-11T06:28:47;100811.19;;;17.40;36.91
67738;BME280;54534;43.612;1.572;2023-02-11T06:31:13;100811.28;;;17.38;36.96
67738;BME280;54534;43.612;1.572;2023-02-11T06:33:38;100813.94;;;17.38;36.98
67738;BME280;54534;43.612;1.572;2023-02-11T06:36:11;100811.28;;;17.38;37.07
67738;BME280;54534;43.612;1.572;2023-02-11T06:38:37;100816.59;;;17.38;36.85
67738;BME280;54534;43.612;1.572;2023-02-11T06:41:03;100811.28;;;17.38;37.01
67738;BME280;54534;43.612;1.572;2023-02-11T06:43:28;100811.28;;;17.38;37.04
67738;BME280;54534;43.612;1.572;2023-02-11T06:45:54;100808.63;;;17.38;36.89
67738;BME280;54534;43.612;1.572;2023-02-11T06:48:20;100817.44;;;17.39;37.08
67738;BME280;54534;43.612;1.572;2023-02-11T06:50:46;100818.28;;;17.39;36.79
67738;BME280;54534;43.612;1.572;2023-02-11T06:53:12;100817.50;;;17.37;36.99
67738;BME280;54534;43.612;1.572;2023-02-11T06:55:37;100828.94;;;17.39;36.92
67738;BME280;54534;43.612;1.572;2023-02-11T06:58:03;100820.19;;;17.37;36.80
67738;BME280;54534;43.612;1.572;2023-02-11T07:00:28;100822.75;;;17.39;36.96
67738;BME280;54534;43.612;1.572;2023-02-11T07:02:54;100828.06;;;17.39;37.04
67738;BME280;54534;43.612;1.572;2023-02-11T07:05:20;100822.75;;;17.39;36.99
67738;BME280;54534;43.612;1.572;2023-02-11T07:07:45;100826.34;;;17.38;36.86
67738;BME280;54534;43.612;1.572;2023-02-11T07:10:11;100824.47;;;17.40;36.71
67738;BME280;54534;43.612;1.572;2023-02-11T07:12:36;100828.00;;;17.40;36.92
67738;BME280;54534;43.612;1.572;2023-02-11T07:15:02;100830.66;;;17.40;36.41
67738;BME280;54534;43.612;1.572;2023-02-11T07:17:27;100823.56;;;17.41;36.70
67738;BME280;54534;43.612;1.572;2023-02-11T07:19:53;100829.72;;;17.41;36.62
67738;BME280;54534;43.612;1.572;2023-02-11T07:22:18;100827.06;;;17.41;36.52
67738;BME280;54534;43.612;1.572;2023-02-11T07:24:44;100836.84;;;17.41;36.81
67738;BME280;54534;43.612;1.572;2023-02-11T07:27:09;100834.09;;;17.42;37.05
67738;BME280;54534;43.612;1.572;2023-02-11T07:29:34;100842.16;;;17.41;36.85
67738;BME280;54534;43.612;1.572;2023-02-11T07:32:00;100847.47;;;17.41;36.77
67738;BME280;54534;43.612;1.572;2023-02-11T07:34:25;100848.31;;;17.41;36.96
67738;BME280;54534;43.612;1.572;2023-02-11T07:36:51;100853.63;;;17.41;37.29
67738;BME280;54534;43.612;1.572;2023-02-11T07:39:16;100856.28;;;17.41;37.10
67738;BME280;54534;43.612;1.572;2023-02-11T07:41:42;100857.25;;;17.40;37.18
67738;BME280;54534;43.612;1.572;2023-02-11T07:44:08;100858.97;;;17.41;37.43
67738;BME280;54534;43.612;1.572;2023-02-11T07:46:34;100856.28;;;17.41;37.20
67738;BME280;54534;43.612;1.572;2023-02-11T07:48:59;100850.06;;;17.42;37.37
67738;BME280;54534;43.612;1.572;2023-02-11T07:51:29;100847.41;;;17.42;37.29
67738;BME280;54534;43.612;1.572;2023-02-11T07:53:56;100852.72;;;17.42;37.29
67738;BME280;54534;43.612;1.572;2023-02-11T07:56:22;100865.16;;;17.42;37.42
67738;BME280;54534;43.612;1.572;2023-02-11T07:58:48;100864.28;;;17.41;37.73
67738;BME280;54534;43.612;1.572;2023-02-11T08:01:17;100867.81;;;17.42;37.29
67738;BME280;54534;43.612;1.572;2023-02-11T08:03:43;100869.59;;;17.41;37.38
67738;BME280;54534;43.612;1.572;2023-02-11T08:06:14;100874.00;;;17.42;37.43
67738;BME280;54534;43.612;1.572;2023-02-11T08:08:40;100874.00;;;17.42;37.42
67738;BME280;54534;43.612;1.572;2023-02-11T08:11:13;100874.00;;;17.42;37.40
67738;BME280;54534;43.612;1.572;2023-02-11T08:13:39;100878.44;;;17.42;37.27
67738;BME280;54534;43.612;1.572;2023-02-11T08:16:06;100883.69;;;17.43;37.42
67738;BME280;54534;43.612;1.572;2023-02-11T08:18:32;100883.75;;;17.42;37.22
67738;BME280;54534;43.612;1.572;2023-02-11T08:21:05;100880.16;;;17.43;37.53
67738;BME280;54534;43.612;1.572;2023-02-11T08:23:31;100884.63;;;17.42;37.56
67738;BME280;54534;43.612;1.572;2023-02-11T08:26:10;100893.47;;;17.43;37.59
67738;BME280;54534;43.612;1.572;2023-02-11T08:28:38;100884.63;;;17.42;37.61
67738;BME280;54534;43.612;1.572;2023-02-11T08:31:05;100884.72;;;17.41;37.69
67738;BME280;54534;43.612;1.572;2023-02-11T08:33:32;100890.03;;;17.41;37.65
67738;BME280;54534;43.612;1.572;2023-02-11T08:35:58;100884.72;;;17.41;37.44
67738;BME280;54534;43.612;1.572;2023-02-11T08:38:24;100878.53;;;17.40;37.33
67738;BME280;54534;43.612;1.572;2023-02-11T08:40:49;100879.38;;;17.41;37.33
67738;BME280;54534;43.612;1.572;2023-02-11T08:43:14;100882.88;;;17.41;37.47
67738;BME280;54534;43.612;1.572;2023-02-11T08:45:40;100881.09;;;17.42;37.34
67738;BME280;54534;43.612;1.572;2023-02-11T08:48:05;100883.75;;;17.42;37.37
67738;BME280;54534;43.612;1.572;2023-02-11T08:50:30;100879.31;;;17.42;37.57
67738;BME280;54534;43.612;1.572;2023-02-11T08:52:56;100881.97;;;17.42;37.44
67738;BME280;54534;43.612;1.572;2023-02-11T08:55:22;100884.63;;;17.42;37.70
67738;BME280;54534;43.612;1.572;2023-02-11T08:57:47;100878.38;;;17.43;37.56
67738;BME280;54534;43.612;1.572;2023-02-11T09:00:13;100877.50;;;17.43;37.51
67738;BME280;54534;43.612;1.572;2023-02-11T09:02:38;100874.00;;;17.42;37.22
67738;BME280;54534;43.612;1.572;2023-02-11T09:05:04;100872.19;;;17.43;37.42
67738;BME280;54534;43.612;1.572;2023-02-11T09:07:30;100873.06;;;17.43;37.26
67738;BME280;54534;43.612;1.572;2023-02-11T09:09:55;100870.41;;;17.43;37.50
67738;BME280;54534;43.612;1.572;2023-02-11T09:12:20;100863.34;;;17.42;37.43
67738;BME280;54534;43.612;1.572;2023-02-11T09:14:46;100863.34;;;17.42;37.24
67738;BME280;54534;43.612;1.572;2023-02-11T09:17:11;100865.09;;;17.43;37.28
67738;BME280;54534;43.612;1.572;2023-02-11T09:19:37;100863.34;;;17.42;37.08
67738;BME280;54534;43.612;1.572;2023-02-11T09:22:02;100868.59;;;17.44;37.34
67738;BME280;54534;43.612;1.572;2023-02-11T09:24:27;100861.56;;;17.43;37.14
67738;BME280;54534;43.612;1.572;2023-02-11T09:26:53;100860.69;;;17.42;37.49
67738;BME280;54534;43.612;1.572;2023-02-11T09:29:18;100865.09;;;17.43;37.11
67738;BME280;54534;43.612;1.572;2023-02-11T09:31:43;100863.34;;;17.42;37.37
67738;BME280;54534;43.612;1.572;2023-02-11T09:34:10;100860.69;;;17.42;37.07
67738;BME280;54534;43.612;1.572;2023-02-11T09:36:37;100864.28;;;17.41;37.12
67738;BME280;54534;43.612;1.572;2023-02-11T09:39:06;100858.97;;;17.41;37.06
67738;BME280;54534;43.612;1.572;2023-02-11T09:44:23;100864.22;;;17.43;37.13
67738;BME280;54534;43.612;1.572;2023-02-11T09:46:54;100875.78;;;17.42;37.01
67738;BME280;54534;43.612;1.572;2023-02-11T09:49:34;100874.06;;;17.41;36.81
67738;BME280;54534;43.612;1.572;2023-02-11T09:54:57;100871.41;;;17.41;36.90
67738;BME280;54534;43.612;1.572;2023-02-11T09:57:34;100863.44;;;17.41;36.58
67738;BME280;54534;43.612;1.572;2023-02-11T10:00:01;100866.94;;;17.41;36.98
67738;BME280;54534;43.612;1.572;2023-02-11T10:05:31;100862.56;;;17.40;36.66
67738;BME280;54534;43.612;1.572;2023-02-11T10:08:22;100860.84;;;17.39;36.72
67738;BME280;54534;43.612;1.572;2023-02-11T10:11:03;100862.63;;;17.39;37.06
67738;BME280;54534;43.612;1.572;2023-02-11T10:14:05;100860.78;;;17.41;36.69
67738;BME280;54534;43.612;1.572;2023-02-11T10:21:54;100858.19;;;17.39;36.94
67738;BME280;54534;43.612;1.572;2023-02-11T10:24:24;100864.38;;;17.40;37.04
67738;BME280;54534;43.612;1.572;2023-02-11T10:26:50;100867.88;;;17.40;36.71
67738;BME280;54534;43.612;1.572;2023-02-11T10:30:05;100869.59;;;17.41;36.93
67738;BME280;54534;43.612;1.572;2023-02-11T10:32:37;100867.88;;;17.40;36.96
67738;BME280;54534;43.612;1.572;2023-02-11T10:35:12;100869.59;;;17.41;36.92
67738;BME280;54534;43.612;1.572;2023-02-11T10:37:39;100862.63;;;17.39;36.89
67738;BME280;54534;43.612;1.572;2023-02-11T10:40:10;100863.44;;;17.41;36.51
67738;BME280;54534;43.612;1.572;2023-02-11T10:42:37;100867.88;;;17.40;36.56
67738;BME280;54534;43.612;1.572;2023-02-11T10:45:04;100867.03;;;17.40;36.69
67738;BME280;54534;43.612;1.572;2023-02-11T10:47:35;100864.38;;;17.40;36.81
67738;BME280;54534;43.612;1.572;2023-02-11T10:50:35;100868.81;;;17.39;36.85
67738;BME280;54534;43.612;1.572;2023-02-11T10:53:19;100867.03;;;17.40;36.62
67738;BME280;54534;43.612;1.572;2023-02-11T10:55:50;100863.59;;;17.38;36.67
67738;BME280;54534;43.612;1.572;2023-02-11T10:59:13;100864.44;;;17.38;36.80
67738;BME280;54534;43.612;1.572;2023-02-11T11:01:13;100865.38;;;17.37;36.86
67738;BME280;54534;43.612;1.572;2023-02-11T11:03:46;100857.41;;;17.37;36.77
67738;BME280;54534;43.612;1.572;2023-02-11T11:06:13;100852.09;;;17.37;36.56
67738;BME280;54534;43.612;1.572;2023-02-11T11:11:06;100845.03;;;17.36;36.78
67738;BME280;54534;43.612;1.572;2023-02-11T11:13:34;100845.03;;;17.36;36.72
67738;BME280;54534;43.612;1.572;2023-02-11T11:18:45;100833.56;;;17.36;36.94
67738;BME280;54534;43.612;1.572;2023-02-11T11:21:25;100832.69;;;17.35;36.63
67738;BME280;54534;43.612;1.572;2023-02-11T11:23:57;100835.34;;;17.35;36.87
67738;BME280;54534;43.612;1.572;2023-02-11T11:26:25;100830.94;;;17.34;36.64
67738;BME280;54534;43.612;1.572;2023-02-11T11:28:55;100830.03;;;17.35;36.99
67738;BME280;54534;43.612;1.572;2023-02-11T11:31:36;100826.50;;;17.34;36.94
67738;BME280;54534;43.612;1.572;2023-02-11T11:34:37;100814.06;;;17.35;36.80
67738;BME280;54534;43.612;1.572;2023-02-11T11:37:20;100809.69;;;17.34;36.90
67738;BME280;54534;43.612;1.572;2023-02-11T11:40:20;100809.69;;;17.34;36.75
67738;BME280;54534;43.612;1.572;2023-02-11T11:43:22;100804.47;;;17.32;36.95
67738;BME280;54534;43.612;1.572;2023-02-11T11:45:56;100802.66;;;17.33;36.89
67738;BME280;54534;43.612;1.572;2023-02-11T11:48:37;100802.72;;;17.31;36.87
67738;BME280;54534;43.612;1.572;2023-02-11T11:51:05;100795.69;;;17.30;36.94
67738;BME280;54534;43.612;1.572;2023-02-11T11:53:50;100794.75;;;17.31;36.84
67738;BME280;54534;43.612;1.572;2023-02-11T11:56:20;100793.88;;;17.31;37.13
67738;BME280;54534;43.612;1.572;2023-02-11T11:58:46;100793.88;;;17.31;37.19
67738;BME280;54534;43.612;1.572;2023-02-11T12:01:38;100792.09;;;17.31;36.91
67738;BME280;54534;43.612;1.572;2023-02-11T12:07:20;100778.88;;;17.30;37.17
67738;BME280;54534;43.612;1.572;2023-02-11T12:24:02;100760.28;;;17.30;37.21
67738;BME280;54534;43.612;1.572;2023-02-11T12:26:51;100759.31;;;17.31;37.13
67738;BME280;54534;43.612;1.572;2023-02-11T12:32:27;100752.31;;;17.30;37.20
67738;BME280;54534;43.612;1.572;2023-02-11T12:38:12;100739.00;;;17.30;37.05
67738;BME280;54534;43.612;1.572;2023-02-11T12:40:58;100739.88;;;17.30;37.60
67738;BME280;54534;43.612;1.572;2023-02-11T12:43:39;100734.56;;;17.30;37.25
67738;BME280;54534;43.612;1.572;2023-02-11T12:54:26;100721.19;;;17.32;37.27
67738;BME280;54534;43.612;1.572;2023-02-11T12:57:27;100715.84;;;17.32;37.48
67738;BME280;54534;43.612;1.572;2023-02-11T13:04:52;100708.66;;;17.34;37.42
67738;BME280;54534;43.612;1.572;2023-02-11T13:07:32;100704.22;;;17.34;37.46
67738;BME280;54534;43.612;1.572;2023-02-11T13:12:45;100700.63;;;17.36;37.52
67738;BME280;54534;43.612;1.572;2023-02-11T13:15:30;100696.13;;;17.36;37.42
67738;BME280;54534;43.612;1.572;2023-02-11T13:23:48;100689.91;;;17.37;37.54
67738;BME280;54534;43.612;1.572;2023-02-11T13:32:22;100678.34;;;17.38;37.56
67738;BME280;54534;43.612;1.572;2023-02-11T13:37:45;100670.25;;;17.40;37.80
67738;BME280;54534;43.612;1.572;2023-02-11T13:40:37;100661.38;;;17.41;37.69
67738;BME280;54534;43.612;1.572;2023-02-11T13:43:06;100663.16;;;17.40;37.85
67738;BME280;54534;43.612;1.572;2023-02-11T13:45:48;100663.06;;;17.42;37.49
67738;BME280;54534;43.612;1.572;2023-02-11T13:48:37;100656.88;;;17.41;37.51
67738;BME280;54534;43.612;1.572;2023-02-11T13:51:14;100667.44;;;17.43;37.90
67738;BME280;54534;43.612;1.572;2023-02-11T13:53:46;100665.66;;;17.43;37.62
67738;BME280;54534;43.612;1.572;2023-02-11T13:58:49;100659.38;;;17.44;37.77
67738;BME280;54534;43.612;1.572;2023-02-11T14:01:43;100649.63;;;17.45;38.04
67738;BME280;54534;43.612;1.572;2023-02-11T14:10:51;100640.72;;;17.46;37.83
67738;BME280;54534;43.612;1.572;2023-02-11T14:23:44;100637.88;;;17.49;37.83
67738;BME280;54534;43.612;1.572;2023-02-11T14:28:55;100637.81;;;17.51;37.69
67738;BME280;54534;43.612;1.572;2023-02-11T14:31:40;100637.81;;;17.51;38.04
67738;BME280;54534;43.612;1.572;2023-02-11T14:36:54;100631.53;;;17.52;38.05
67738;BME280;54534;43.612;1.572;2023-02-11T14:41:51;100628.81;;;17.53;37.82
67738;BME280;54534;43.612;1.572;2023-02-11T14:44:22;100618.16;;;17.53;37.76
67738;BME280;54534;43.612;1.572;2023-02-11T14:46:50;100619.03;;;17.54;38.07
67738;BME280;54534;43.612;1.572;2023-02-11T14:49:35;100615.41;;;17.55;37.97
67738;BME280;54534;43.612;1.572;2023-02-11T14:54:48;100610.09;;;17.55;37.92
67738;BME280;54534;43.612;1.572;2023-02-11T14:57:17;100612.69;;;17.56;38.08
67738;BME280;54534;43.612;1.572;2023-02-11T14:59:58;100610.84;;;17.57;37.99
67738;BME280;54534;43.612;1.572;2023-02-11T15:02:35;100613.47;;;17.59;38.08
67738;BME280;54534;43.612;1.572;2023-02-11T15:07:51;100616.13;;;17.59;38.22
67738;BME280;54534;43.612;1.572;2023-02-11T15:10:24;100614.31;;;17.59;37.88
67738;BME280;54534;43.612;1.572;2023-02-11T15:12:51;100611.66;;;17.59;37.83
67738;BME280;54534;43.612;1.572;2023-02-11T15:15:17;100608.91;;;17.61;38.22
67738;BME280;54534;43.612;1.572;2023-02-11T15:17:43;100612.44;;;17.61;38.10
67738;BME280;54534;43.612;1.572;2023-02-11T15:20:25;100612.44;;;17.61;38.08
67738;BME280;54534;43.612;1.572;2023-02-11T15:22:56;100612.34;;;17.63;38.13